Ironsides, Maryland
Current Conditions -  °F | °C
As of 1:56 PM on Thursday 23 Oct 2014 (Local Time) from KNYG Reporting Station
Broken Clouds Broken Clouds  
Wind Chill: 66°   Ceiling: 4500
Heat Index: 66°   Visibility: 10mi
Dew Point: 44°   Wind: 18mph
Humidity: 45%   Direction: 360°N
Pressure: 29.88"   Gusts: 26mph
Location:  38.49°N, 77.16°W
Report Text: KNYG 231756Z 36016G23KT 10SM BKN045 19/07 A2988 RMK AO2 PK WND 35030/1735 SLP120 T01890067 10194 20117 58010 $
Loading
Personal Weather Stations






























Interactive Weather Map
Tropical Storm Tracking
New forecast layout! Learn more

10-Day Weather Forecast

Advertisements
Track Severe Weather on mobile